Terminal Aerodrome Forecast
Issued by NWS

Home | Current Version | Previous Version | Text Only | Print | Product List | Glossary On
Versions: 1 2 3 4 5 6 7 8 9 10 11 12 13
468
FTUS45 KRIW 240527
TAFBPI
TAF
KBPI 240527Z 2406/2506 VRB06KT P6SM SKC
     FM241800 27018G28KT P6SM SCT080
     FM242200 27020G30KT P6SM VCTS SCT060 BKN100CB
     FM250200 31013KT P6SM SCT070 BKN100=

USA.gov is the U.S. government's official web portal to all federal, state and local government web resources and services.